createdAt,value
2023-02-25T00:00:11.475Z,101049.69
2023-02-25T00:02:38.326Z,101044.94
2023-02-25T00:05:07.392Z,101051.56
2023-02-25T00:07:34.140Z,101055.22
2023-02-25T00:10:01.703Z,101049.16
2023-02-25T00:12:29.518Z,101050.00
2023-02-25T00:14:56.532Z,101049.88
2023-02-25T00:17:23.664Z,101050.44
2023-02-25T00:19:50.399Z,101049.38
2023-02-25T00:22:17.365Z,101043.16
2023-02-25T00:24:44.283Z,101048.41
2023-02-25T00:27:11.052Z,101045.66
2023-02-25T00:29:40.119Z,101051.03
2023-02-25T00:32:07.186Z,101044.16
2023-02-25T00:34:34.015Z,101053.63
2023-02-25T00:37:00.899Z,101050.44
2023-02-25T00:39:42.354Z,101056.91
2023-02-25T00:42:10.348Z,101051.66
2023-02-25T00:44:39.358Z,101043.56
2023-02-25T00:47:06.920Z,101055.56
2023-02-25T00:49:33.708Z,101052.00
2023-02-25T00:52:00.474Z,101050.63
2023-02-25T00:54:29.477Z,101048.03
2023-02-25T00:56:56.247Z,101047.06
2023-02-25T00:59:23.117Z,101046.00
2023-02-25T01:01:49.931Z,101051.09
2023-02-25T01:04:16.716Z,101042.69
2023-02-25T01:06:43.943Z,101049.84
2023-02-25T01:09:14.253Z,101059.47
2023-02-25T01:11:43.563Z,101054.47
2023-02-25T01:14:13.008Z,101052.13
2023-02-25T01:16:40.309Z,101050.56
2023-02-25T01:19:08.500Z,101057.59
2023-02-25T01:21:37.217Z,101056.06
2023-02-25T01:24:08.327Z,101061.66
2023-02-25T01:26:36.476Z,101066.19
2023-02-25T01:29:06.354Z,101067.97
2023-02-25T01:31:33.485Z,101058.72
2023-02-25T01:34:01.637Z,101063.00
2023-02-25T01:36:29.443Z,101055.41
2023-02-25T01:38:56.712Z,101060.03
2023-02-25T01:41:24.051Z,101059.19
2023-02-25T01:43:53.936Z,101056.47
2023-02-25T01:46:23.625Z,101055.28
2023-02-25T01:48:50.644Z,101052.69
2023-02-25T01:51:17.635Z,101048.28
2023-02-25T01:53:46.972Z,101059.81
2023-02-25T01:56:15.727Z,101057.44
2023-02-25T01:58:43.201Z,101055.19
2023-02-25T02:01:12.897Z,101058.78
2023-02-25T02:03:42.522Z,101057.97
2023-02-25T02:06:10.717Z,101039.88
2023-02-25T02:08:37.557Z,101050.13
2023-02-25T02:11:04.811Z,101048.19
2023-02-25T02:13:33.813Z,101061.25
2023-02-25T02:16:03.757Z,101054.97
2023-02-25T02:18:34.129Z,101054.25
2023-02-25T02:21:04.007Z,101052.34
2023-02-25T02:23:31.118Z,101054.13
2023-02-25T02:25:58.412Z,101046.19
2023-02-25T02:28:28.291Z,101055.91
2023-02-25T02:30:58.247Z,101049.84
2023-02-25T02:33:29.700Z,101043.91
2023-02-25T02:35:59.599Z,101055.34
2023-02-25T02:38:27.897Z,101051.91
2023-02-25T02:40:57.947Z,101057.69
2023-02-25T02:43:27.927Z,101056.19
2023-02-25T02:45:55.290Z,101059.03
2023-02-25T02:48:28.979Z,101060.22
2023-02-25T02:50:57.868Z,101056.78
2023-02-25T02:53:28.715Z,101052.84
2023-02-25T02:56:06.155Z,101059.41
2023-02-25T02:58:36.000Z,101067.38
2023-02-25T03:01:05.940Z,101063.22
2023-02-25T03:03:37.630Z,101055.50
2023-02-25T03:06:08.119Z,101062.75
2023-02-25T03:08:40.170Z,101072.38
2023-02-25T03:11:07.066Z,101068.22
2023-02-25T03:13:33.904Z,101064.06
2023-02-25T03:16:01.212Z,101075.34
2023-02-25T03:18:31.082Z,101070.47
2023-02-25T03:20:59.091Z,101073.19
2023-02-25T03:23:31.445Z,101064.66
2023-02-25T03:26:06.688Z,101072.38
2023-02-25T03:28:34.525Z,101072.16
2023-02-25T03:31:07.441Z,101064.06
2023-02-25T03:33:35.749Z,101063.13
2023-02-25T03:36:05.462Z,101074.25
2023-02-25T03:38:34.903Z,101076.75
2023-02-25T03:41:03.561Z,101070.47
2023-02-25T03:43:33.095Z,101079.47
2023-02-25T03:46:00.241Z,101069.66
2023-02-25T03:48:27.455Z,101065.34
2023-02-25T03:50:59.440Z,101066.31
2023-02-25T03:53:27.078Z,101064.63
2023-02-25T03:55:54.631Z,101063.94
2023-02-25T03:58:21.783Z,101059.41
2023-02-25T04:00:49.960Z,101062.84
2023-02-25T04:03:16.911Z,101060.03
2023-02-25T04:05:43.728Z,101052.28
2023-02-25T04:08:16.279Z,101057.53
2023-02-25T04:10:44.258Z,101053.00
2023-02-25T04:13:11.690Z,101068.44
2023-02-25T04:15:38.663Z,101071.06
2023-02-25T04:18:05.587Z,101067.59
2023-02-25T04:20:33.462Z,101075.34
2023-02-25T04:23:01.595Z,101082.47
2023-02-25T04:25:30.685Z,101086.16
2023-02-25T04:27:57.461Z,101091.50
2023-02-25T04:30:24.330Z,101089.72
2023-02-25T04:32:51.216Z,101097.31
2023-02-25T04:35:18.174Z,101091.38
2023-02-25T04:37:45.069Z,101098.50
2023-02-25T04:40:14.954Z,101088.03
2023-02-25T04:42:41.993Z,101091.38
2023-02-25T04:45:10.071Z,101100.75
2023-02-25T04:47:37.112Z,101100.75
2023-02-25T04:50:04.785Z,101096.72
2023-02-25T04:52:31.903Z,101111.44
2023-02-25T04:54:58.753Z,101098.50
2023-02-25T04:57:26.018Z,101096.59
2023-02-25T04:59:52.963Z,101094.00
2023-02-25T05:02:20.231Z,101085.22
2023-02-25T05:04:47.249Z,101098.97
2023-02-25T05:07:14.126Z,101096.25
2023-02-25T05:09:40.964Z,101097.91
2023-02-25T05:12:07.915Z,101097.09
2023-02-25T05:14:35.135Z,101089.81
2023-02-25T05:17:01.891Z,101093.16
2023-02-25T05:19:30.972Z,101101.00
2023-02-25T05:21:57.725Z,101098.38
2023-02-25T05:24:24.497Z,101118.22
2023-02-25T05:26:51.865Z,101118.09
2023-02-25T05:29:19.106Z,101118.00
2023-02-25T05:31:46.199Z,101115.38
2023-02-25T05:34:13.247Z,101119.66
2023-02-25T05:36:40.429Z,101109.44
2023-02-25T05:39:07.182Z,101113.13
2023-02-25T05:41:33.916Z,101116.56
2023-02-25T05:44:00.743Z,101105.28
2023-02-25T05:46:27.922Z,101108.84
2023-02-25T05:48:55.045Z,101105.28
2023-02-25T05:51:23.895Z,101115.00
2023-02-25T05:53:51.063Z,101123.69
2023-02-25T05:56:19.649Z,101120.34
2023-02-25T05:58:48.782Z,101122.13
2023-02-25T06:01:17.218Z,101113.72
2023-02-25T06:03:45.193Z,101119.88
2023-02-25T06:06:13.788Z,101127.25
2023-02-25T06:08:42.091Z,101121.06
2023-02-25T06:11:09.150Z,101115.84
2023-02-25T06:13:38.190Z,101116.56
2023-02-25T06:16:05.472Z,101125.94
2023-02-25T06:18:36.983Z,101118.81
2023-02-25T06:21:05.720Z,101120.50
2023-02-25T06:23:32.931Z,101119.53
2023-02-25T06:25:59.826Z,101131.16
2023-02-25T06:28:26.625Z,101122.50
2023-02-25T06:30:53.487Z,101125.81
2023-02-25T06:33:20.448Z,101122.38
2023-02-25T06:35:51.148Z,101125.25
2023-02-25T06:38:17.922Z,101132.09
2023-02-25T06:40:45.397Z,101126.19
2023-02-25T06:43:12.245Z,101133.88
2023-02-25T06:45:41.531Z,101128.66
2023-02-25T06:48:08.503Z,101140.09
2023-02-25T06:50:35.938Z,101135.81
2023-02-25T06:53:02.657Z,101138.53
2023-02-25T06:55:29.393Z,101147.09
2023-02-25T06:57:56.337Z,101153.00
2023-02-25T07:00:23.413Z,101162.53
2023-02-25T07:02:50.328Z,101162.31
2023-02-25T07:05:17.156Z,101174.66
2023-02-25T07:07:43.980Z,101170.38
2023-02-25T07:10:11.535Z,101181.41
2023-02-25T07:12:38.333Z,101163.94
2023-02-25T07:15:05.480Z,101162.06
2023-02-25T07:17:32.316Z,101162.78
2023-02-25T07:19:59.042Z,101161.81
2023-02-25T07:22:25.826Z,101173.09
2023-02-25T07:24:52.643Z,101180.84
2023-02-25T07:27:19.407Z,101173.00
2023-02-25T07:29:46.112Z,101175.03
2023-02-25T07:32:13.164Z,101171.69
2023-02-25T07:34:39.929Z,101170.00
2023-02-25T07:37:06.640Z,101179.41
2023-02-25T07:39:33.418Z,101189.63
2023-02-25T07:42:00.248Z,101190.72
2023-02-25T07:44:27.044Z,101184.41
2023-02-25T07:46:53.764Z,101195.34
2023-02-25T07:49:20.628Z,101196.66
2023-02-25T07:51:47.363Z,101194.63
2023-02-25T07:54:15.732Z,101196.41
2023-02-25T07:56:42.543Z,101200.78
2023-02-25T07:59:09.477Z,101192.72
2023-02-25T08:01:39.735Z,101213.28
2023-02-25T08:04:07.171Z,101210.41
2023-02-25T08:06:37.727Z,101218.03
2023-02-25T08:09:06.739Z,101220.28
2023-02-25T08:11:33.783Z,101221.81
2023-02-25T08:14:00.826Z,101225.28
2023-02-25T08:16:27.816Z,101231.91
2023-02-25T08:18:54.609Z,101220.41
2023-02-25T08:21:22.430Z,101232.78
2023-02-25T08:23:49.926Z,101235.25
2023-02-25T08:26:18.874Z,101221.97
2023-02-25T08:28:46.382Z,101230.75
2023-02-25T08:31:13.741Z,101236.00
2023-02-25T08:33:41.507Z,101226.94
2023-02-25T08:36:09.794Z,101230.03
2023-02-25T08:38:37.847Z,101233.38
2023-02-25T08:41:05.844Z,101229.78
2023-02-25T08:43:32.889Z,101233.22
2023-02-25T08:46:01.193Z,101227.41
2023-02-25T08:48:28.294Z,101230.97
2023-02-25T08:50:55.843Z,101230.63
2023-02-25T08:53:23.125Z,101231.22
2023-02-25T08:55:51.249Z,101224.78
2023-02-25T08:58:18.027Z,101230.13
2023-02-25T09:00:45.011Z,101238.81
2023-02-25T09:03:11.822Z,101227.03
2023-02-25T09:05:38.571Z,101220.72
2023-02-25T09:08:05.381Z,101230.25
2023-02-25T09:10:48.214Z,101236.88
2023-02-25T09:13:17.493Z,101235.47
2023-02-25T09:15:44.548Z,101230.69
2023-02-25T09:18:14.420Z,101236.84
2023-02-25T09:20:41.251Z,101234.97
2023-02-25T09:23:08.147Z,101235.28
2023-02-25T09:25:35.046Z,101235.63
2023-02-25T09:28:01.816Z,101235.38
2023-02-25T09:30:28.632Z,101237.75
2023-02-25T09:32:55.798Z,101236.81
2023-02-25T09:35:23.088Z,101245.25
2023-02-25T09:37:49.951Z,101235.22
2023-02-25T09:40:23.039Z,101247.00
2023-02-25T09:42:57.065Z,101239.00
2023-02-25T09:45:25.411Z,101246.72
2023-02-25T09:47:56.410Z,101233.16
2023-02-25T09:50:28.808Z,101234.63
2023-02-25T09:52:56.918Z,101237.31
2023-02-25T09:55:24.015Z,101251.69
2023-02-25T09:57:54.470Z,101241.41
2023-02-25T10:00:23.849Z,101248.31
2023-02-25T10:02:57.447Z,101248.31
2023-02-25T10:05:27.356Z,101249.16
2023-02-25T10:07:57.324Z,101252.72
2023-02-25T10:11:11.093Z,101242.34
2023-02-25T10:13:41.011Z,101250.66
2023-02-25T10:16:16.975Z,101255.66
2023-02-25T10:18:51.247Z,101257.53
2023-02-25T10:21:21.380Z,101248.91
2023-02-25T10:23:59.257Z,101261.25
2023-02-25T10:26:29.369Z,101261.13
2023-02-25T10:29:00.912Z,101264.09
2023-02-25T10:31:30.432Z,101270.06
2023-02-25T10:33:58.003Z,101276.59
2023-02-25T10:36:28.382Z,101265.25
2023-02-25T10:38:55.327Z,101280.03
2023-02-25T10:41:25.607Z,101274.53
2023-02-25T10:43:53.913Z,101272.31
2023-02-25T10:46:24.327Z,101271.34
2023-02-25T10:48:55.771Z,101283.63
2023-02-25T10:51:22.920Z,101279.94
2023-02-25T10:53:52.919Z,101292.38
2023-02-25T10:56:23.185Z,101296.66
2023-02-25T10:58:58.615Z,101286.69
2023-02-25T11:01:25.874Z,101295.97
2023-02-25T11:03:53.496Z,101296.22
2023-02-25T11:06:23.187Z,101291.16
2023-02-25T11:08:51.133Z,101281.94
2023-02-25T11:11:21.030Z,101282.25
2023-02-25T11:13:51.315Z,101281.03
2023-02-25T11:16:19.733Z,101288.81
2023-02-25T11:18:51.513Z,101289.13
2023-02-25T11:21:27.922Z,101292.38
2023-02-25T11:23:55.262Z,101294.34
2023-02-25T11:26:25.694Z,101284.09
2023-02-25T11:28:52.987Z,101282.72
2023-02-25T11:31:24.275Z,101288.84
2023-02-25T11:33:55.887Z,101304.00
2023-02-25T11:36:24.136Z,101298.75
2023-02-25T11:39:02.944Z,101290.53
2023-02-25T11:41:32.464Z,101284.84
2023-02-25T11:44:11.017Z,101292.25
2023-02-25T11:46:38.286Z,101283.16
2023-02-25T11:49:05.845Z,101280.34
2023-02-25T11:51:47.292Z,101276.53
2023-02-25T11:54:17.548Z,101270.06
2023-02-25T11:56:48.815Z,101271.63
2023-02-25T11:59:19.027Z,101259.66
2023-02-25T12:01:46.823Z,101253.72
2023-02-25T12:04:17.131Z,101258.56
2023-02-25T12:06:47.077Z,101253.19
2023-02-25T12:09:16.890Z,101258.03
2023-02-25T12:11:46.948Z,101246.66
2023-02-25T12:14:15.347Z,101253.31
2023-02-25T12:16:45.560Z,101257.06
2023-02-25T12:19:15.630Z,101257.34
2023-02-25T12:21:52.294Z,101251.94
2023-02-25T12:24:20.751Z,101257.47
2023-02-25T12:26:48.410Z,101250.56
2023-02-25T12:29:16.866Z,101258.16
2023-02-25T12:31:48.978Z,101258.31
2023-02-25T12:34:21.668Z,101252.06
2023-02-25T12:36:58.539Z,101258.81
2023-02-25T12:39:30.191Z,101260.41
2023-02-25T12:42:00.687Z,101256.69
2023-02-25T12:44:38.057Z,101257.78
2023-02-25T12:47:11.128Z,101262.78
2023-02-25T12:49:41.092Z,101256.00
2023-02-25T12:52:09.365Z,101260.19
2023-02-25T12:54:36.780Z,101259.66
2023-02-25T12:57:11.888Z,101258.97
2023-02-25T12:59:41.818Z,101259.94
2023-02-25T13:02:11.652Z,101253.72
2023-02-25T13:04:38.842Z,101249.59
2023-02-25T13:07:06.243Z,101265.19
2023-02-25T13:09:36.365Z,101270.00
2023-02-25T13:12:13.869Z,101257.56
2023-02-25T13:14:44.053Z,101256.72
2023-02-25T13:17:11.444Z,101261.53
2023-02-25T13:19:41.534Z,101258.47
2023-02-25T13:22:12.384Z,101255.81
2023-02-25T13:24:42.589Z,101246.81
2023-02-25T13:27:12.675Z,101237.56
2023-02-25T13:30:00.563Z,101234.81
2023-02-25T13:32:30.639Z,101233.91
2023-02-25T13:35:08.972Z,101226.03
2023-02-25T13:37:41.283Z,101211.25
2023-02-25T13:40:09.679Z,101228.25
2023-02-25T13:42:36.839Z,101216.09
2023-02-25T13:45:06.768Z,101229.66
2023-02-25T13:47:36.751Z,101228.41
2023-02-25T13:50:04.205Z,101222.19
2023-02-25T13:52:35.700Z,101220.97
2023-02-25T13:55:08.716Z,101227.59
2023-02-25T13:57:38.784Z,101219.84
2023-02-25T14:00:09.753Z,101227.75
2023-02-25T14:02:44.329Z,101235.38
2023-02-25T14:05:14.554Z,101224.84
2023-02-25T14:07:44.515Z,101248.63
2023-02-25T14:10:18.805Z,101236.88
2023-02-25T14:12:55.241Z,101236.88
2023-02-25T14:15:25.276Z,101238.25
2023-02-25T14:17:55.608Z,101253.88
2023-02-25T14:20:25.620Z,101244.75
2023-02-25T14:22:55.866Z,101251.09
2023-02-25T14:25:25.747Z,101259.50
2023-02-25T14:28:00.712Z,101264.91
2023-02-25T14:30:30.641Z,101271.09
2023-02-25T14:33:00.535Z,101261.88
2023-02-25T14:35:28.197Z,101270.84
2023-02-25T14:38:02.926Z,101271.22
2023-02-25T14:40:37.198Z,101268.28
2023-02-25T14:43:14.119Z,101260.19
2023-02-25T14:45:44.832Z,101268.34
2023-02-25T14:48:15.371Z,101272.94
2023-02-25T14:50:45.682Z,101267.31
2023-02-25T14:53:18.077Z,101263.19
2023-02-25T14:55:48.131Z,101259.47
2023-02-25T14:58:15.402Z,101262.13
2023-02-25T15:00:51.010Z,101262.44
2023-02-25T15:03:22.638Z,101267.44
2023-02-25T15:05:57.805Z,101260.22
2023-02-25T15:08:26.024Z,101262.72
2023-02-25T15:10:56.037Z,101277.00
2023-02-25T15:13:26.025Z,101290.13
2023-02-25T15:16:08.438Z,101304.38
2023-02-25T15:18:35.820Z,101285.19
2023-02-25T15:21:22.857Z,101289.72
2023-02-25T15:23:51.625Z,101303.91
2023-02-25T15:26:21.754Z,101294.91
2023-02-25T15:28:50.065Z,101294.91
2023-02-25T15:31:20.215Z,101293.38
2023-02-25T15:33:47.812Z,101310.91
2023-02-25T15:36:15.239Z,101301.06
2023-02-25T15:38:45.265Z,101298.13
2023-02-25T15:41:15.261Z,101308.56
2023-02-25T15:43:43.069Z,101306.38
2023-02-25T15:46:10.633Z,101305.69
2023-02-25T15:48:39.662Z,101311.78
2023-02-25T15:51:10.686Z,101313.41
2023-02-25T15:53:40.007Z,101317.59
2023-02-25T15:56:07.268Z,101310.28
2023-02-25T15:58:34.712Z,101313.22
2023-02-25T16:01:03.295Z,101321.78
2023-02-25T16:03:35.243Z,101327.50
2023-02-25T16:06:05.321Z,101336.19
2023-02-25T16:08:36.003Z,101340.47
2023-02-25T16:11:04.100Z,101337.16
2023-02-25T16:13:32.724Z,101350.03
2023-02-25T16:16:01.214Z,101335.22
2023-02-25T16:18:32.702Z,101348.78
2023-02-25T16:21:02.732Z,101347.41
2023-02-25T16:23:30.550Z,101347.72
2023-02-25T16:25:58.050Z,101342.47
2023-02-25T16:28:26.964Z,101352.25
2023-02-25T16:30:57.408Z,101360.97
2023-02-25T16:33:27.628Z,101358.28
2023-02-25T16:36:07.398Z,101365.59
2023-02-25T16:38:42.638Z,101369.84
2023-02-25T16:41:10.035Z,101392.53
2023-02-25T16:43:38.532Z,101368.78
2023-02-25T16:46:08.628Z,101380.97
2023-02-25T16:48:38.541Z,101385.81
2023-02-25T16:51:08.874Z,101382.63
2023-02-25T16:53:36.174Z,101375.25
2023-02-25T16:56:05.998Z,101397.00
2023-02-25T16:58:32.864Z,101386.78
2023-02-25T17:01:05.549Z,101382.88
2023-02-25T17:03:41.947Z,101382.69
2023-02-25T17:06:15.341Z,101380.06
2023-02-25T17:08:45.525Z,101384.09
2023-02-25T17:11:16.693Z,101384.66
2023-02-25T17:13:44.990Z,101387.94
2023-02-25T17:16:15.160Z,101399.38
2023-02-25T17:18:45.571Z,101398.09
2023-02-25T17:21:15.722Z,101392.72
2023-02-25T17:23:43.720Z,101403.91
2023-02-25T17:26:13.824Z,101402.28
2023-02-25T17:28:41.204Z,101401.56
2023-02-25T17:31:11.373Z,101408.25
2023-02-25T17:33:47.706Z,101411.50
2023-02-25T17:36:15.753Z,101415.09
2023-02-25T17:38:44.160Z,101419.31
2023-02-25T17:41:14.057Z,101427.03
2023-02-25T17:43:41.336Z,101433.81
2023-02-25T17:46:13.559Z,101424.84
2023-02-25T17:48:43.660Z,101433.72
2023-02-25T17:51:10.937Z,101435.53
2023-02-25T17:53:44.147Z,101441.59
2023-02-25T17:56:14.968Z,101438.25
2023-02-25T17:58:42.493Z,101443.66
2023-02-25T18:01:18.187Z,101456.75
2023-02-25T18:03:46.717Z,101450.91
2023-02-25T18:06:16.854Z,101456.88
2023-02-25T18:08:47.296Z,101466.53
2023-02-25T18:11:17.254Z,101469.25
2023-02-25T18:13:44.216Z,101478.41
2023-02-25T18:16:17.988Z,101470.34
2023-02-25T18:18:50.183Z,101469.72
2023-02-25T18:21:17.674Z,101479.50
2023-02-25T18:23:44.973Z,101476.16
2023-02-25T18:26:13.780Z,101481.41
2023-02-25T18:28:41.149Z,101472.84
2023-02-25T18:31:08.526Z,101484.28
2023-02-25T18:33:35.593Z,101493.19
2023-02-25T18:36:05.065Z,101489.88
2023-02-25T18:38:32.298Z,101492.25
2023-02-25T18:41:00.020Z,101496.91
2023-02-25T18:43:30.922Z,101498.81
2023-02-25T18:45:58.215Z,101498.47
2023-02-25T18:48:26.075Z,101497.63
2023-02-25T18:50:53.020Z,101499.63
2023-02-25T18:53:21.272Z,101495.25
2023-02-25T18:55:48.134Z,101502.41
2023-02-25T18:58:16.235Z,101502.75
2023-02-25T19:00:44.684Z,101504.56
2023-02-25T19:03:14.597Z,101510.63
2023-02-25T19:05:41.857Z,101510.00
2023-02-25T19:08:12.289Z,101505.84
2023-02-25T19:10:39.335Z,101503.81
2023-02-25T19:13:12.535Z,101498.56
2023-02-25T19:15:39.676Z,101504.44
2023-02-25T19:18:06.892Z,101516.06
2023-02-25T19:20:33.821Z,101510.25
2023-02-25T19:23:00.615Z,101519.28
2023-02-25T19:25:28.909Z,101521.53
2023-02-25T19:27:56.728Z,101524.06
2023-02-25T19:30:25.678Z,101525.72
2023-02-25T19:32:52.562Z,101526.19
2023-02-25T19:35:19.763Z,101531.78
2023-02-25T19:37:47.264Z,101536.38
2023-02-25T19:40:15.195Z,101536.75
2023-02-25T19:42:43.102Z,101532.59
2023-02-25T19:45:11.162Z,101547.66
2023-02-25T19:47:38.089Z,101541.13
2023-02-25T19:50:06.390Z,101539.47
2023-02-25T19:52:33.585Z,101546.59
2023-02-25T19:55:03.529Z,101543.03
2023-02-25T19:57:30.687Z,101545.97
2023-02-25T19:59:57.691Z,101552.41
2023-02-25T20:02:24.808Z,101556.50
2023-02-25T20:04:52.037Z,101565.09
2023-02-25T20:07:18.946Z,101563.25
2023-02-25T20:09:45.827Z,101579.69
2023-02-25T20:12:14.851Z,101576.25
2023-02-25T20:14:41.737Z,101568.50
2023-02-25T20:17:08.738Z,101578.22
2023-02-25T20:19:35.773Z,101575.84
2023-02-25T20:22:04.192Z,101580.97
2023-02-25T20:24:31.470Z,101582.84
2023-02-25T20:26:58.455Z,101584.78
2023-02-25T20:29:25.405Z,101590.94
2023-02-25T20:31:52.322Z,101590.94
2023-02-25T20:34:21.085Z,101603.28
2023-02-25T20:36:51.447Z,101594.44
2023-02-25T20:39:21.665Z,101596.22
2023-02-25T20:41:49.167Z,101598.31
2023-02-25T20:44:17.088Z,101604.50
2023-02-25T20:46:44.631Z,101607.34
2023-02-25T20:49:14.287Z,101613.63
2023-02-25T20:51:42.717Z,101608.28
2023-02-25T20:54:10.382Z,101619.38
2023-02-25T20:56:37.225Z,101624.59
2023-02-25T20:59:04.456Z,101631.72
2023-02-25T21:01:31.426Z,101624.69
2023-02-25T21:03:58.433Z,101639.56
2023-02-25T21:06:26.046Z,101645.53
2023-02-25T21:08:53.625Z,101640.16
2023-02-25T21:11:21.316Z,101652.53
2023-02-25T21:13:48.428Z,101645.53
2023-02-25T21:16:15.745Z,101653.47
2023-02-25T21:18:43.947Z,101651.06
2023-02-25T21:21:11.903Z,101656.50
2023-02-25T21:23:39.530Z,101661.22
2023-02-25T21:26:09.077Z,101667.53
2023-02-25T21:28:36.322Z,101672.00
2023-02-25T21:31:05.843Z,101677.25
2023-02-25T21:33:33.552Z,101673.78
2023-02-25T21:36:01.199Z,101678.19
2023-02-25T21:38:29.011Z,101676.50
2023-02-25T21:40:56.410Z,101677.66
2023-02-25T21:43:24.226Z,101685.50
2023-02-25T21:45:54.139Z,101688.03
2023-02-25T21:48:21.365Z,101693.25
2023-02-25T21:50:48.446Z,101689.81
2023-02-25T21:53:15.581Z,101685.84
2023-02-25T21:55:43.427Z,101691.38
2023-02-25T21:58:11.186Z,101692.41
2023-02-25T22:00:38.542Z,101696.00
2023-02-25T22:03:06.504Z,101692.31
2023-02-25T22:05:33.663Z,101689.91
2023-02-25T22:08:00.537Z,101701.28
2023-02-25T22:10:27.598Z,101702.97
2023-02-25T22:12:54.438Z,101702.03
2023-02-25T22:15:23.542Z,101700.44
2023-02-25T22:17:50.614Z,101707.50
2023-02-25T22:20:18.089Z,101716.44
2023-02-25T22:22:44.965Z,101707.50
2023-02-25T22:25:11.965Z,101706.34
2023-02-25T22:27:41.071Z,101703.72
2023-02-25T22:30:09.063Z,101714.25
2023-02-25T22:32:36.838Z,101717.81
2023-02-25T22:35:04.471Z,101713.53
2023-02-25T22:37:32.677Z,101714.16
2023-02-25T22:39:59.407Z,101704.66
2023-02-25T22:42:26.512Z,101713.03
2023-02-25T22:44:56.661Z,101714.69
2023-02-25T22:47:23.690Z,101716.38
2023-02-25T22:49:50.773Z,101713.75
2023-02-25T22:52:17.657Z,101716.25
2023-02-25T22:54:44.613Z,101728.69
2023-02-25T22:57:11.380Z,101729.09
2023-02-25T22:59:38.320Z,101728.38
2023-02-25T23:02:05.406Z,101725.25
2023-02-25T23:04:33.165Z,101729.19
2023-02-25T23:07:01.258Z,101738.50
2023-02-25T23:09:28.268Z,101736.19
2023-02-25T23:11:55.702Z,101736.19
2023-02-25T23:14:22.577Z,101735.34
2023-02-25T23:16:49.479Z,101740.66
2023-02-25T23:19:17.957Z,101738.38
2023-02-25T23:21:45.193Z,101756.03
2023-02-25T23:24:18.796Z,101756.56
2023-02-25T23:26:46.822Z,101749.75
2023-02-25T23:29:14.183Z,101754.88
2023-02-25T23:31:43.731Z,101762.72
2023-02-25T23:34:12.406Z,101769.63
2023-02-25T23:36:40.481Z,101774.09
2023-02-25T23:39:09.138Z,101766.47
2023-02-25T23:41:36.607Z,101772.81
2023-02-25T23:44:03.944Z,101775.31
2023-02-25T23:46:31.782Z,101777.84
2023-02-25T23:49:00.177Z,101774.56
2023-02-25T23:51:29.732Z,101773.84
2023-02-25T23:53:57.765Z,101780.75
2023-02-25T23:56:26.972Z,101777.00
2023-02-25T23:58:54.268Z,101778.56
